Time;durP1;ratioP1;P1;durP2;ratioP2;P2;SDS_P1;SDS_P2;PMS_P1;PMS_P2;Temp;Humidity;BMP_temperature;BMP_pressure;BME280_temperature;BME280_humidity;BME280_pressure;Samples;Min_cycle;Max_cycle;Signal;HPM_P1;HPM_P2
2023/10/29 00:03:19;;;;;;;1.95;1.02;;;;;13.80;98417.00;;;;10544819;28;20188;-72
2023/10/29 00:08:21;;;;;;;1.58;0.90;;;;;13.80;98453.00;;;;10526445;28;20227;-71
2023/10/29 00:13:25;;;;;;;1.38;0.80;;;;;13.90;98439.00;;;;10551901;28;20189;-72
2023/10/29 00:18:27;;;;;;;1.85;0.80;;;;;14.00;98441.00;;;;10522111;28;20250;-71
2023/10/29 00:23:28;;;;;;;3.78;0.80;;;;;14.00;98442.00;;;;10549106;28;20184;-72
2023/10/29 00:28:30;;;;;;;4.30;1.27;;;;;14.00;98427.00;;;;10540824;28;20677;-72
2023/10/29 00:33:32;;;;;;;0.88;0.63;;;;;13.80;98443.00;;;;10523946;28;20205;-72
2023/10/29 00:38:34;;;;;;;3.35;0.90;;;;;13.60;98425.00;;;;10532206;28;20936;-72
2023/10/29 00:43:45;;;;;;;1.05;0.80;;;;;13.70;98450.00;;;;10542291;28;20180;-72
2023/10/29 00:48:48;;;;;;;5.55;0.75;;;;;13.70;98444.00;;;;10543349;28;20208;-72
2023/10/29 00:53:51;;;;;;;2.15;0.80;;;;;13.60;98416.00;;;;10527868;28;20185;-71
2023/10/29 00:58:53;;;;;;;2.15;0.60;;;;;13.60;98427.00;;;;10541203;28;20185;-72
2023/10/29 01:03:55;;;;;;;0.90;0.80;;;;;13.50;98446.00;;;;10540213;28;20282;-71
2023/10/29 01:08:57;;;;;;;2.58;0.93;;;;;13.40;98450.00;;;;10533748;28;20197;-72
2023/10/29 01:14:00;;;;;;;1.80;0.60;;;;;13.30;98444.00;;;;10542424;28;20198;-72
2023/10/29 01:19:02;;;;;;;0.80;0.57;;;;;13.20;98437.00;;;;10544596;28;20192;-71
2023/10/29 01:24:04;;;;;;;3.67;0.80;;;;;13.10;98437.00;;;;10531564;28;20212;-71
2023/10/29 01:29:06;;;;;;;1.17;0.88;;;;;13.00;98440.00;;;;10546774;28;20203;-71
2023/10/29 01:34:08;;;;;;;3.13;1.10;;;;;13.00;98424.00;;;;10547821;28;20207;-72
2023/10/29 01:39:10;;;;;;;1.70;0.82;;;;;13.00;98421.00;;;;10543767;28;20216;-71
2023/10/29 01:44:12;;;;;;;3.17;1.00;;;;;13.00;98434.00;;;;10540114;28;20253;-71
2023/10/29 01:49:13;;;;;;;1.05;0.70;;;;;13.00;98459.00;;;;10533949;28;20828;-71
2023/10/29 01:54:15;;;;;;;3.00;0.60;;;;;13.00;98444.00;;;;10542081;28;20192;-71
2023/10/29 01:59:18;;;;;;;2.78;0.60;;;;;13.00;98434.00;;;;10542005;28;20754;-70
2023/10/29 02:04:26;;;;;;;1.55;0.70;;;;;13.20;98450.00;;;;10510863;28;20265;-69
2023/10/29 02:09:28;;;;;;;1.85;0.80;;;;;13.30;98456.00;;;;10520396;28;20966;-71
2023/10/29 02:14:32;;;;;;;1.70;0.70;;;;;13.40;98446.00;;;;10540420;28;21067;-70
2023/10/29 02:19:34;;;;;;;1.63;0.80;;;;;13.50;98431.00;;;;10534557;28;20287;-70
2023/10/29 02:24:36;;;;;;;4.18;0.80;;;;;13.50;98428.00;;;;10547866;28;20184;-70
2023/10/29 02:29:38;;;;;;;5.38;0.80;;;;;13.50;98449.00;;;;10546351;28;20238;-69
2023/10/29 02:34:39;;;;;;;0.90;0.50;;;;;13.50;98442.00;;;;10553677;28;20204;-69
2023/10/29 02:39:41;;;;;;;2.97;0.65;;;;;13.60;98468.00;;;;10551494;28;20195;-71
2023/10/29 02:44:43;;;;;;;2.45;0.50;;;;;13.60;98474.00;;;;10531591;28;20196;-70
2023/10/29 02:49:45;;;;;;;1.60;0.40;;;;;13.60;98472.00;;;;10549745;28;20208;-70
2023/10/29 02:54:48;;;;;;;1.45;0.50;;;;;13.50;98478.00;;;;10546963;28;20291;-70
2023/10/29 02:59:50;;;;;;;2.38;0.68;;;;;13.60;98471.00;;;;10536141;28;20195;-70
2023/10/29 03:04:52;;;;;;;3.95;0.70;;;;;13.60;98462.00;;;;10541674;28;20195;-72
2023/10/29 03:09:54;;;;;;;3.53;0.93;;;;;13.50;98464.00;;;;10546771;28;20259;-70
2023/10/29 03:14:55;;;;;;;3.72;1.05;;;;;13.40;98458.00;;;;10559435;28;20275;-74
2023/10/29 03:19:58;;;;;;;4.32;0.80;;;;;13.20;98453.00;;;;10525915;28;20216;-73
2023/10/29 03:24:59;;;;;;;2.40;0.70;;;;;13.30;98466.00;;;;10538725;28;20224;-73
2023/10/29 03:30:01;;;;;;;3.42;0.88;;;;;13.30;98465.00;;;;10557084;28;20565;-74
2023/10/29 03:35:05;;;;;;;4.90;0.90;;;;;13.30;98482.00;;;;10554424;28;20283;-74
2023/10/29 03:40:07;;;;;;;3.78;1.20;;;;;13.30;98494.00;;;;10550143;28;20279;-73
2023/10/29 03:45:09;;;;;;;5.47;1.55;;;;;13.40;98484.00;;;;10524638;28;20188;-73
2023/10/29 03:50:11;;;;;;;4.20;0.70;;;;;13.40;98478.00;;;;10555459;28;20222;-73
2023/10/29 03:55:13;;;;;;;2.80;1.10;;;;;13.40;98477.00;;;;10538793;28;20188;-73
2023/10/29 04:00:15;;;;;;;1.38;0.75;;;;;13.20;98476.00;;;;10534534;28;20188;-73
2023/10/29 04:05:18;;;;;;;6.15;1.30;;;;;13.10;98507.00;;;;10543334;28;20195;-73
2023/10/29 04:10:20;;;;;;;7.65;1.08;;;;;12.90;98501.00;;;;10527004;28;20208;-73
2023/10/29 04:15:21;;;;;;;4.68;1.40;;;;;12.80;98484.00;;;;10543626;28;20283;-73
2023/10/29 04:20:23;;;;;;;3.85;1.33;;;;;12.80;98509.00;;;;10566172;27;20283;-73
2023/10/29 04:25:25;;;;;;;5.25;1.58;;;;;12.90;98514.00;;;;10565850;27;20279;-73
2023/10/29 04:30:27;;;;;;;5.30;1.23;;;;;13.00;98535.00;;;;10570988;27;20232;-73
2023/10/29 04:35:32;;;;;;;5.78;1.02;;;;;13.10;98540.00;;;;10560170;27;20197;-73
2023/10/29 04:40:34;;;;;;;4.63;1.75;;;;;13.20;98540.00;;;;10546562;28;20205;-73
2023/10/29 04:45:35;;;;;;;3.85;1.27;;;;;13.20;98558.00;;;;10542345;28;20761;-73
2023/10/29 04:50:37;;;;;;;5.97;1.73;;;;;13.20;98575.00;;;;10550174;28;20232;-73
2023/10/29 04:55:40;;;;;;;7.13;0.90;;;;;13.20;98581.00;;;;10527438;28;20192;-73
2023/10/29 05:00:41;;;;;;;5.25;1.25;;;;;13.20;98582.00;;;;10536761;28;20192;-74
2023/10/29 05:05:43;;;;;;;9.32;1.60;;;;;13.10;98572.00;;;;10543442;28;20270;-73
2023/10/29 05:10:46;;;;;;;13.07;1.60;;;;;13.10;98586.00;;;;10555936;28;20215;-73
2023/10/29 05:15:50;;;;;;;6.80;1.85;;;;;13.10;98599.00;;;;10554444;28;20215;-73
2023/10/29 05:20:52;;;;;;;6.38;1.08;;;;;13.10;98602.00;;;;10544127;28;20188;-73
2023/10/29 05:25:54;;;;;;;9.52;1.55;;;;;13.20;98596.00;;;;10549258;28;20308;-72
2023/10/29 05:30:56;;;;;;;6.32;1.42;;;;;13.10;98623.00;;;;10545229;28;20247;-73
2023/10/29 05:35:58;;;;;;;8.45;1.95;;;;;13.00;98614.00;;;;10547196;28;20261;-72
2023/10/29 05:41:00;;;;;;;5.72;1.40;;;;;12.90;98614.00;;;;10546788;28;20195;-73
2023/10/29 05:46:02;;;;;;;7.50;2.20;;;;;12.80;98638.00;;;;10533358;28;20854;-72
2023/10/29 05:51:04;;;;;;;10.35;1.83;;;;;12.80;98631.00;;;;10536042;28;20220;-71
2023/10/29 05:56:06;;;;;;;7.40;1.92;;;;;12.70;98651.00;;;;10546025;28;20192;-70
2023/10/29 06:01:08;;;;;;;8.52;2.00;;;;;12.50;98669.00;;;;10539707;28;20196;-72
2023/10/29 06:06:10;;;;;;;5.05;1.88;;;;;12.50;98666.00;;;;10554819;28;20216;-71
2023/10/29 06:11:12;;;;;;;11.85;1.95;;;;;12.40;98657.00;;;;10550728;28;20208;-71
2023/10/29 06:16:14;;;;;;;4.28;1.60;;;;;12.20;98663.00;;;;10556040;28;20195;-72
2023/10/29 06:21:20;;;;;;;6.15;1.75;;;;;12.20;98689.00;;;;10552033;28;20298;-72
2023/10/29 06:26:23;;;;;;;11.95;1.80;;;;;12.10;98684.00;;;;10546986;28;20279;-73
2023/10/29 06:31:29;;;;;;;11.88;2.95;;;;;12.10;98680.00;;;;10527480;28;20686;-71
2023/10/29 06:36:31;;;;;;;5.95;2.13;;;;;12.00;98697.00;;;;10513265;28;20277;-71
2023/10/29 06:41:33;;;;;;;7.00;2.33;;;;;11.90;98712.00;;;;10528895;28;20188;-71
2023/10/29 06:46:35;;;;;;;8.50;2.30;;;;;12.00;98728.00;;;;10548497;28;20185;-71
2023/10/29 06:51:38;;;;;;;4.97;1.55;;;;;12.00;98735.00;;;;10548639;28;20212;-71
2023/10/29 06:56:40;;;;;;;11.35;2.08;;;;;12.00;98744.00;;;;10540598;28;20292;-71
2023/10/29 07:01:42;;;;;;;9.32;1.80;;;;;12.00;98743.00;;;;10551927;28;20192;-71
2023/10/29 07:06:46;;;;;;;11.47;2.23;;;;;11.90;98748.00;;;;10553905;28;20283;-71
2023/10/29 07:11:49;;;;;;;9.77;1.83;;;;;11.90;98766.00;;;;10550305;28;20725;-72
2023/10/29 07:16:51;;;;;;;8.02;1.70;;;;;11.90;98778.00;;;;10550032;28;20961;-71
2023/10/29 07:21:53;;;;;;;9.73;2.38;;;;;12.00;98803.00;;;;10519488;28;20261;-71
2023/10/29 07:26:54;;;;;;;7.72;2.03;;;;;12.00;98814.00;;;;10531515;28;20188;-71
2023/10/29 07:31:56;;;;;;;7.15;2.08;;;;;12.10;98820.00;;;;10545574;28;20311;-71
2023/10/29 07:36:58;;;;;;;13.23;2.50;;;;;12.30;98799.00;;;;10530657;28;20193;-72
2023/10/29 07:42:01;;;;;;;15.38;2.28;;;;;12.40;98816.00;;;;10540393;28;20193;-71
2023/10/29 07:47:08;;;;;;;12.43;2.65;;;;;12.50;98820.00;;;;10548353;28;20187;-71
2023/10/29 07:52:10;;;;;;;8.10;1.98;;;;;12.70;98832.00;;;;10549723;28;20546;-74
2023/10/29 07:57:12;;;;;;;7.30;1.77;;;;;13.20;98838.00;;;;10550030;28;20603;-74
2023/10/29 08:02:13;;;;;;;8.60;2.25;;;;;13.50;98834.00;;;;10551371;28;21039;-73
2023/10/29 08:07:17;;;;;;;10.55;2.60;;;;;13.50;98815.00;;;;10504745;28;20734;-74
2023/10/29 08:12:18;;;;;;;11.70;2.35;;;;;13.60;98826.00;;;;10531450;28;20221;-74
2023/10/29 08:17:21;;;;;;;9.70;1.70;;;;;13.70;98825.00;;;;10555623;28;20212;-74
2023/10/29 08:22:23;;;;;;;12.43;1.88;;;;;14.10;98825.00;;;;10549854;28;20607;-74
2023/10/29 08:27:25;;;;;;;9.38;2.00;;;;;14.50;98844.00;;;;10536797;28;20773;-74
2023/10/29 08:32:32;;;;;;;9.68;2.20;;;;;14.80;98877.00;;;;10549349;28;20278;-74
2023/10/29 08:37:35;;;;;;;5.22;1.27;;;;;14.70;98888.00;;;;10537828;28;20658;-74
2023/10/29 08:42:37;;;;;;;10.48;1.60;;;;;14.70;98894.00;;;;10552062;28;20189;-74
2023/10/29 08:47:39;;;;;;;12.60;2.38;;;;;14.90;98904.00;;;;10552533;28;20579;-74
2023/10/29 08:52:41;;;;;;;9.98;2.22;;;;;15.40;98881.00;;;;10539632;28;20196;-74
2023/10/29 08:57:43;;;;;;;8.20;1.98;;;;;15.70;98906.00;;;;10552208;28;20196;-74
2023/10/29 09:02:45;;;;;;;9.52;2.50;;;;;15.80;98906.00;;;;10544988;28;20211;-76
2023/10/29 09:07:46;;;;;;;10.93;2.30;;;;;15.60;98876.00;;;;10523125;28;20266;-75
2023/10/29 09:12:48;;;;;;;6.82;1.67;;;;;15.90;98874.00;;;;10532549;28;20188;-76
2023/10/29 09:17:50;;;;;;;6.75;1.60;;;;;15.50;98876.00;;;;10559875;28;20713;-75
2023/10/29 09:22:52;;;;;;;10.60;2.05;;;;;15.30;98880.00;;;;10512883;28;20441;-76
2023/10/29 09:27:54;;;;;;;6.55;2.10;;;;;15.20;98867.00;;;;10550801;28;20857;-76
2023/10/29 09:32:56;;;;;;;12.30;2.38;;;;;15.20;98860.00;;;;10551861;28;21086;-76
2023/10/29 09:37:59;;;;;;;9.35;2.08;;;;;15.20;98880.00;;;;10529758;28;20207;-77
2023/10/29 09:43:05;;;;;;;13.13;2.20;;;;;15.00;98874.00;;;;10552466;28;20201;-75
2023/10/29 09:48:08;;;;;;;16.00;2.63;;;;;14.80;98858.00;;;;10533909;28;20574;-77
2023/10/29 09:53:15;;;;;;;11.60;1.98;;;;;15.00;98872.00;;;;10536753;28;20196;-74
2023/10/29 09:58:19;;;;;;;10.07;2.40;;;;;15.30;98883.00;;;;10554850;28;20772;-75
2023/10/29 10:03:24;;;;;;;9.23;2.03;;;;;16.10;98890.00;;;;10552459;28;20184;-76
2023/10/29 10:08:28;;;;;;;9.93;2.13;;;;;16.50;98890.00;;;;10525043;28;20211;-75
2023/10/29 10:13:37;;;;;;;8.00;1.92;;;;;16.30;98908.00;;;;10550810;28;20185;-76
2023/10/29 10:18:57;;;;;;;14.15;1.88;;;;;15.60;98934.00;;;;10533681;28;20189;-76
2023/10/29 10:23:59;;;;;;;9.32;2.10;;;;;15.10;98949.00;;;;10543618;28;20289;-75
2023/10/29 10:29:03;;;;;;;12.52;2.20;;;;;14.80;98959.00;;;;10533310;28;20208;-77
2023/10/29 10:34:18;;;;;;;9.02;1.88;;;;;14.60;98938.00;;;;10548487;28;20196;-77
2023/10/29 10:39:22;;;;;;;8.35;1.90;;;;;14.40;98934.00;;;;10555445;28;20708;-75
2023/10/29 10:44:26;;;;;;;12.43;1.77;;;;;14.40;98924.00;;;;10545083;28;20205;-77
2023/10/29 10:49:31;;;;;;;9.52;1.75;;;;;14.70;98930.00;;;;10555304;28;20606;-76
2023/10/29 10:54:36;;;;;;;6.57;1.75;;;;;15.10;98873.00;;;;10557669;28;20842;-76
2023/10/29 10:59:39;;;;;;;9.98;2.03;;;;;15.30;98848.00;;;;10550691;28;20284;-75
2023/10/29 11:04:43;;;;;;;11.10;2.65;;;;;15.40;98838.00;;;;10536507;28;20208;-76
2023/10/29 11:09:45;;;;;;;9.13;1.92;;;;;16.20;98823.00;;;;10550563;28;20224;-76
2023/10/29 11:15:15;;;;;;;5.72;1.75;;;;;16.40;98810.00;;;;10536786;28;20188;-76
2023/10/29 11:20:39;;;;;;;9.63;2.08;;;;;16.00;98808.00;;;;10550734;28;20197;-76
2023/10/29 11:25:41;;;;;;;8.40;2.45;;;;;16.30;98816.00;;;;10552832;28;20235;-70
2023/10/29 11:31:15;;;;;;;17.75;2.83;;;;;16.80;98791.00;;;;10545186;28;20912;-71
2023/10/29 11:36:35;;;;;;;8.63;1.98;;;;;16.70;98803.00;;;;10546422;28;20232;-69
2023/10/29 11:41:38;;;;;;;8.10;2.15;;;;;16.40;98822.00;;;;10526632;28;20270;-70
2023/10/29 11:46:56;;;;;;;9.75;1.85;;;;;16.30;98787.00;;;;10547140;28;20220;-69
2023/10/29 11:52:02;;;;;;;7.57;1.65;;;;;16.50;98785.00;;;;10547101;28;20204;-69
2023/10/29 11:57:06;;;;;;;9.13;1.90;;;;;16.60;98795.00;;;;10534023;28;20272;-70
2023/10/29 12:02:08;;;;;;;7.20;1.70;;;;;16.80;98802.00;;;;10543817;28;20197;-70
2023/10/29 12:07:24;;;;;;;6.60;1.80;;;;;16.60;98816.00;;;;10537988;28;20532;-70
2023/10/29 12:12:25;;;;;;;7.88;1.98;;;;;16.90;98819.00;;;;10542776;28;20306;-70
2023/10/29 12:17:28;;;;;;;13.43;2.05;;;;;16.90;98794.00;;;;10540981;28;20184;-70
2023/10/29 12:22:32;;;;;;;8.70;1.83;;;;;16.40;98799.00;;;;10536944;28;20193;-71
2023/10/29 12:27:39;;;;;;;9.63;2.38;;;;;15.70;98816.00;;;;10540826;28;20192;-70
2023/10/29 12:32:40;;;;;;;12.32;2.13;;;;;14.80;98809.00;;;;10537958;28;20220;-69
2023/10/29 12:37:51;;;;;;;12.38;2.58;;;;;14.10;98794.00;;;;10543766;28;20177;-70
2023/10/29 12:42:54;;;;;;;11.73;2.50;;;;;14.20;98784.00;;;;10541320;28;20184;-73
2023/10/29 12:48:12;;;;;;;10.13;2.15;;;;;14.40;98762.00;;;;10533580;28;20184;-73
2023/10/29 12:53:24;;;;;;;6.05;1.85;;;;;14.20;98757.00;;;;10556216;28;20200;-73
2023/10/29 12:58:30;;;;;;;11.15;2.60;;;;;14.00;98752.00;;;;10506943;28;20722;-73
2023/10/29 13:03:32;;;;;;;11.05;1.80;;;;;13.90;98756.00;;;;10544853;28;20185;-73
2023/10/29 13:08:34;;;;;;;7.47;1.75;;;;;13.60;98748.00;;;;10551949;28;20201;-73
2023/10/29 13:13:37;;;;;;;4.35;1.50;;;;;13.40;98704.00;;;;10534737;28;20213;-73
2023/10/29 13:18:39;;;;;;;4.75;1.38;;;;;13.20;98686.00;;;;10547512;28;20193;-73
2023/10/29 13:23:41;;;;;;;2.25;0.90;;;;;12.90;98665.00;;;;10535333;28;20290;-73
2023/10/29 13:28:43;;;;;;;8.60;2.00;;;;;12.80;98732.00;;;;10538934;28;20201;-73
2023/10/29 13:33:47;;;;;;;5.43;1.40;;;;;13.00;98709.00;;;;10547802;28;20196;-74
2023/10/29 13:38:49;;;;;;;2.72;0.88;;;;;13.70;98712.00;;;;10542831;28;20278;-73
2023/10/29 13:43:51;;;;;;;2.30;0.70;;;;;13.90;98736.00;;;;10532397;28;20261;-73
2023/10/29 13:48:53;;;;;;;4.00;0.77;;;;;13.70;98726.00;;;;10529998;28;20306;-73
2023/10/29 13:53:55;;;;;;;1.60;1.02;;;;;13.70;98717.00;;;;10542620;28;20191;-71
2023/10/29 13:58:57;;;;;;;1.27;0.80;;;;;13.80;98709.00;;;;10538686;28;20180;-72
2023/10/29 14:03:59;;;;;;;1.65;0.95;;;;;14.50;98719.00;;;;10520201;28;20292;-72
2023/10/29 14:09:02;;;;;;;6.20;1.10;;;;;15.20;98721.00;;;;10542484;28;20297;-71
2023/10/29 14:14:03;;;;;;;3.60;0.88;;;;;14.50;98709.00;;;;10537423;28;20188;-71
2023/10/29 14:19:06;;;;;;;2.47;0.88;;;;;14.70;98707.00;;;;10558153;28;20195;-71
2023/10/29 14:24:09;;;;;;;2.28;0.90;;;;;14.30;98703.00;;;;10551856;28;20619;-71
2023/10/29 14:29:12;;;;;;;2.03;0.90;;;;;14.50;98701.00;;;;10555138;28;20296;-71
2023/10/29 14:34:14;;;;;;;3.55;0.90;;;;;14.30;98689.00;;;;10548886;28;20188;-71
2023/10/29 14:39:17;;;;;;;2.13;1.00;;;;;14.00;98678.00;;;;10531419;28;20578;-71
2023/10/29 14:44:19;;;;;;;1.80;0.80;;;;;14.20;98697.00;;;;10555194;28;20211;-71
2023/10/29 14:49:21;;;;;;;2.70;0.90;;;;;14.20;98706.00;;;;10551951;28;20264;-71
2023/10/29 14:54:22;;;;;;;5.53;1.08;;;;;14.20;98700.00;;;;10528090;28;20193;-71
2023/10/29 14:59:24;;;;;;;2.40;0.95;;;;;14.10;98705.00;;;;10538603;28;20287;-71
2023/10/29 15:04:27;;;;;;;1.85;0.88;;;;;14.30;98699.00;;;;10552060;28;20191;-71
2023/10/29 15:09:29;;;;;;;1.92;0.90;;;;;14.20;98705.00;;;;10532512;28;20515;-70
2023/10/29 15:14:30;;;;;;;2.70;0.82;;;;;14.20;98715.00;;;;10543940;28;20224;-69
2023/10/29 15:19:32;;;;;;;2.55;0.77;;;;;14.10;98730.00;;;;10524766;28;20258;-70
2023/10/29 15:24:38;;;;;;;3.00;1.00;;;;;13.90;98726.00;;;;10528147;28;20228;-70
2023/10/29 15:29:41;;;;;;;5.38;1.23;;;;;13.80;98735.00;;;;10539702;28;20204;-70
2023/10/29 15:34:43;;;;;;;3.17;1.27;;;;;13.90;98732.00;;;;10541457;28;20197;-71
2023/10/29 15:39:45;;;;;;;2.33;0.90;;;;;13.90;98735.00;;;;10547547;28;20192;-71
2023/10/29 15:44:47;;;;;;;2.75;0.90;;;;;13.90;98736.00;;;;10544122;28;20188;-71
2023/10/29 15:49:51;;;;;;;2.85;0.85;;;;;13.70;98736.00;;;;10543553;28;20278;-71
2023/10/29 15:54:53;;;;;;;3.85;1.45;;;;;13.60;98739.00;;;;10518611;28;20727;-70
2023/10/29 15:59:58;;;;;;;4.00;0.85;;;;;13.60;98740.00;;;;10546792;28;20208;-71
2023/10/29 16:05:00;;;;;;;3.42;0.90;;;;;13.50;98742.00;;;;10549325;28;20188;-70
2023/10/29 16:10:02;;;;;;;4.30;1.13;;;;;13.40;98754.00;;;;10549563;28;20233;-69
2023/10/29 16:15:06;;;;;;;3.15;0.80;;;;;13.30;98767.00;;;;10535452;28;20271;-78
2023/10/29 16:20:08;;;;;;;2.60;0.93;;;;;13.30;98777.00;;;;10549040;28;20192;-76
2023/10/29 16:25:10;;;;;;;4.18;1.10;;;;;13.30;98788.00;;;;10539880;28;20220;-77
2023/10/29 16:30:12;;;;;;;4.15;1.10;;;;;13.40;98792.00;;;;10558877;28;20740;-78
2023/10/29 16:35:14;;;;;;;3.72;0.80;;;;;13.40;98817.00;;;;10515299;28;20284;-76
2023/10/29 16:40:16;;;;;;;3.25;1.10;;;;;13.40;98830.00;;;;10562219;28;20287;-78
2023/10/29 16:45:21;;;;;;;3.13;1.25;;;;;13.40;98848.00;;;;10540878;28;20673;-78
2023/10/29 16:50:23;;;;;;;5.40;1.65;;;;;13.40;98855.00;;;;10548043;28;20212;-76
2023/10/29 16:55:25;;;;;;;3.42;1.17;;;;;13.30;98853.00;;;;10558296;28;20193;-76
2023/10/29 17:00:27;;;;;;;4.93;2.17;;;;;13.20;98856.00;;;;10540430;28;20278;-75
2023/10/29 17:05:29;;;;;;;4.18;0.80;;;;;13.20;98877.00;;;;10552398;28;20189;-76
2023/10/29 17:10:30;;;;;;;4.55;0.98;;;;;13.20;98893.00;;;;10537466;28;20212;-77
2023/10/29 17:15:32;;;;;;;5.78;1.20;;;;;13.20;98906.00;;;;10549602;28;20294;-77
2023/10/29 17:20:34;;;;;;;2.95;0.95;;;;;13.20;98925.00;;;;10547588;28;20189;-75
2023/10/29 17:25:36;;;;;;;2.80;0.95;;;;;13.20;98952.00;;;;10545545;28;20232;-73
2023/10/29 17:30:38;;;;;;;3.53;0.98;;;;;13.10;98954.00;;;;10537875;28;20207;-72
2023/10/29 17:35:40;;;;;;;4.30;0.90;;;;;13.00;98963.00;;;;10526194;28;20204;-73
2023/10/29 17:40:42;;;;;;;6.45;0.98;;;;;12.90;98981.00;;;;10546644;28;20216;-72
2023/10/29 17:45:47;;;;;;;5.55;0.90;;;;;12.80;99004.00;;;;10508694;28;20217;-72
2023/10/29 17:50:56;;;;;;;4.20;1.23;;;;;12.70;99017.00;;;;10524518;28;20820;-72
2023/10/29 17:55:58;;;;;;;3.55;1.23;;;;;12.60;99023.00;;;;10538853;27;20199;-72
2023/10/29 18:01:01;;;;;;;2.17;1.02;;;;;12.50;99034.00;;;;10531327;27;20184;-72
2023/10/29 18:06:14;;;;;;;4.57;1.30;;;;;12.40;99033.00;;;;10517962;27;21325;-72
2023/10/29 18:11:18;;;;;;;6.53;1.40;;;;;12.40;99048.00;;;;10543511;28;21016;-72
2023/10/29 18:16:20;;;;;;;5.55;1.00;;;;;12.30;99065.00;;;;10546453;28;20177;-72
2023/10/29 18:21:22;;;;;;;3.28;1.33;;;;;12.30;99060.00;;;;10524966;28;20221;-71
2023/10/29 18:26:24;;;;;;;3.75;1.50;;;;;12.20;99060.00;;;;10534228;27;20273;-72
2023/10/29 18:31:25;;;;;;;5.13;1.30;;;;;12.10;99075.00;;;;10554034;27;20204;-71
2023/10/29 18:36:28;;;;;;;2.33;0.95;;;;;12.10;99082.00;;;;10563623;27;20623;-75
2023/10/29 18:41:30;;;;;;;4.57;1.45;;;;;12.00;99079.00;;;;10537159;28;21265;-74
2023/10/29 18:46:32;;;;;;;7.00;1.08;;;;;12.00;99082.00;;;;10532151;28;20293;-75
2023/10/29 18:51:33;;;;;;;8.38;1.48;;;;;12.00;99080.00;;;;10553972;28;21203;-74
2023/10/29 18:56:36;;;;;;;4.47;1.48;;;;;12.00;99104.00;;;;10533434;28;20220;-75
2023/10/29 19:01:38;;;;;;;3.80;1.40;;;;;11.90;99098.00;;;;10529295;28;20192;-73
2023/10/29 19:06:41;;;;;;;3.20;1.10;;;;;11.90;99104.00;;;;10533226;27;20192;-75
2023/10/29 19:11:43;;;;;;;5.72;1.42;;;;;11.70;99111.00;;;;10543564;27;20216;-76
2023/10/29 19:16:45;;;;;;;7.07;1.60;;;;;11.60;99117.00;;;;10552600;27;20246;-75
2023/10/29 19:21:47;;;;;;;7.57;1.55;;;;;11.50;99125.00;;;;10532868;28;20240;-75
2023/10/29 19:26:49;;;;;;;3.87;1.43;;;;;11.50;99123.00;;;;10548467;28;20280;-75
2023/10/29 19:31:50;;;;;;;9.53;1.90;;;;;11.50;99143.00;;;;10528981;28;20220;-75
2023/10/29 19:36:52;;;;;;;3.73;1.43;;;;;11.50;99144.00;;;;10527963;27;20200;-74
2023/10/29 19:41:54;;;;;;;7.00;1.70;;;;;11.60;99150.00;;;;10533505;27;20804;-73
2023/10/29 19:46:56;;;;;;;11.30;1.93;;;;;11.60;99158.00;;;;10534960;27;20952;-74
2023/10/29 19:51:58;;;;;;;5.40;1.88;;;;;11.60;99160.00;;;;10528070;27;20295;-74
2023/10/29 19:57:00;;;;;;;5.07;1.70;;;;;11.60;99169.00;;;;10546870;27;20719;-74
2023/10/29 20:02:02;;;;;;;6.70;1.45;;;;;11.50;99183.00;;;;10534361;27;20201;-74
2023/10/29 20:07:04;;;;;;;5.00;1.70;;;;;11.50;99188.00;;;;10542661;27;20205;-74
2023/10/29 20:12:06;;;;;;;11.05;2.03;;;;;11.50;99196.00;;;;10530087;27;20304;-74
2023/10/29 20:17:08;;;;;;;8.32;1.80;;;;;11.40;99208.00;;;;10524664;28;20204;-74
2023/10/29 20:22:10;;;;;;;6.90;1.57;;;;;11.30;99221.00;;;;10533259;28;20209;-74
2023/10/29 20:27:12;;;;;;;6.88;1.65;;;;;11.50;99230.00;;;;10544177;28;20300;-73
2023/10/29 20:32:14;;;;;;;11.73;2.22;;;;;11.60;99228.00;;;;10533752;27;20306;-74
2023/10/29 20:37:15;;;;;;;6.17;1.80;;;;;11.70;99246.00;;;;10555909;27;20219;-74
2023/10/29 20:42:17;;;;;;;10.40;2.03;;;;;11.70;99228.00;;;;10526262;27;20235;-74
2023/10/29 20:47:19;;;;;;;6.97;2.15;;;;;11.70;99235.00;;;;10550396;27;20219;-74
2023/10/29 20:52:22;;;;;;;7.57;1.77;;;;;11.60;99243.00;;;;10541508;27;20305;-73
2023/10/29 20:57:24;;;;;;;7.68;1.70;;;;;11.50;99240.00;;;;10547450;28;20299;-73
2023/10/29 21:02:26;;;;;;;8.23;2.10;;;;;11.40;99245.00;;;;10529083;27;20201;-73
2023/10/29 21:07:28;;;;;;;13.80;2.17;;;;;11.30;99266.00;;;;10521000;28;20205;-74
2023/10/29 21:12:30;;;;;;;7.13;1.85;;;;;11.10;99269.00;;;;10544851;28;20204;-73
2023/10/29 21:17:32;;;;;;;7.93;1.50;;;;;11.10;99268.00;;;;10516164;27;20218;-73
2023/10/29 21:22:33;;;;;;;9.63;1.80;;;;;11.00;99288.00;;;;10541093;28;20632;-74
2023/10/29 21:27:38;;;;;;;6.90;1.73;;;;;11.00;99275.00;;;;10538447;28;20295;-73
2023/10/29 21:32:42;;;;;;;6.53;1.53;;;;;11.00;99271.00;;;;10537995;28;20870;-73
2023/10/29 21:37:45;;;;;;;22.40;3.27;;;;;11.10;99283.00;;;;10542935;28;20253;-72
2023/10/29 21:42:47;;;;;;;9.60;1.77;;;;;11.00;99285.00;;;;10546530;28;20192;-72
2023/10/29 21:47:48;;;;;;;7.83;1.70;;;;;11.00;99275.00;;;;10516534;28;20291;-73
2023/10/29 21:52:50;;;;;;;6.90;2.10;;;;;10.90;99288.00;;;;10542850;28;20273;-73
2023/10/29 21:57:52;;;;;;;8.17;2.13;;;;;10.90;99282.00;;;;10540005;28;20295;-72
2023/10/29 22:02:54;;;;;;;6.53;1.73;;;;;10.90;99283.00;;;;10541493;28;20291;-70
2023/10/29 22:07:56;;;;;;;9.67;3.13;;;;;10.80;99286.00;;;;10538440;28;20798;-70
2023/10/29 22:12:58;;;;;;;11.30;2.40;;;;;10.80;99284.00;;;;10516214;28;20220;-71
2023/10/29 22:17:59;;;;;;;13.53;2.27;;;;;10.70;99284.00;;;;10529248;28;20207;-71
2023/10/29 22:23:01;;;;;;;11.17;2.13;;;;;10.70;99292.00;;;;10536286;28;20207;-71
2023/10/29 22:28:03;;;;;;;13.77;2.73;;;;;10.60;99289.00;;;;10531620;28;20299;-71
2023/10/29 22:33:05;;;;;;;9.93;2.23;;;;;10.60;99290.00;;;;10534219;28;20226;-71
2023/10/29 22:38:07;;;;;;;13.53;2.57;;;;;10.60;99304.00;;;;10537154;27;20208;-71
2023/10/29 22:43:09;;;;;;;11.47;2.43;;;;;10.80;99304.00;;;;10514996;27;20208;-71
2023/10/29 22:48:11;;;;;;;14.30;2.50;;;;;10.80;99310.00;;;;10527854;27;20208;-71
2023/10/29 22:53:13;;;;;;;9.50;2.20;;;;;10.80;99306.00;;;;10525914;28;21100;-70
2023/10/29 22:58:15;;;;;;;7.60;2.00;;;;;10.80;99310.00;;;;10540205;27;20299;-71
2023/10/29 23:03:17;;;;;;;14.30;2.80;;;;;10.80;99308.00;;;;10531259;27;20833;-71
2023/10/29 23:08:19;;;;;;;13.47;3.00;;;;;10.70;99313.00;;;;10541050;27;20200;-70
2023/10/29 23:13:21;;;;;;;10.10;2.30;;;;;10.70;99307.00;;;;10549979;27;20920;-76
2023/10/29 23:18:26;;;;;;;9.53;2.10;;;;;10.80;99310.00;;;;10516309;28;20254;-74
2023/10/29 23:23:29;;;;;;;9.13;2.43;;;;;10.90;99306.00;;;;10550621;27;20780;-75
2023/10/29 23:28:30;;;;;;;11.57;2.10;;;;;10.90;99300.00;;;;10538533;27;20205;-75
2023/10/29 23:33:39;;;;;;;7.80;2.88;;;;;10.90;99310.00;;;;10537401;27;20251;-75
2023/10/29 23:38:41;;;;;;;14.57;2.60;;;;;11.00;99308.00;;;;10548318;27;20283;-75
2023/10/29 23:43:42;;;;;;;13.47;3.27;;;;;11.00;99324.00;;;;10524290;28;20275;-75
2023/10/29 23:48:44;;;;;;;14.80;2.80;;;;;11.00;99315.00;;;;10545310;28;20204;-75
2023/10/29 23:53:46;;;;;;;8.93;2.03;;;;;11.10;99315.00;;;;10533213;28;20223;-76
2023/10/29 23:58:48;;;;;;;6.35;1.98;;;;;11.10;99324.00;;;;10553058;27;20236;-73
